sensor_id;sensor_type;location;lat;lon;timestamp;P1;durP1;ratioP1;P2;durP2;ratioP2
14187;SDS011;7175;51.978;5.330;2023-08-01T00:00:43;147.30;;;136.10;;
14187;SDS011;7175;51.978;5.330;2023-08-01T00:03:13;147.10;;;135.70;;
14187;SDS011;7175;51.978;5.330;2023-08-01T00:05:42;146.27;;;134.80;;
14187;SDS011;7175;51.978;5.330;2023-08-01T00:08:14;146.23;;;134.70;;
14187;SDS011;7175;51.978;5.330;2023-08-01T00:10:45;147.67;;;136.03;;
14187;SDS011;7175;51.978;5.330;2023-08-01T00:13:17;147.33;;;135.70;;
14187;SDS011;7175;51.978;5.330;2023-08-01T00:15:48;150.60;;;139.00;;
14187;SDS011;7175;51.978;5.330;2023-08-01T00:18:33;147.00;;;135.60;;
14187;SDS011;7175;51.978;5.330;2023-08-01T00:21:02;148.97;;;137.53;;
14187;SDS011;7175;51.978;5.330;2023-08-01T00:23:33;150.90;;;139.30;;
14187;SDS011;7175;51.978;5.330;2023-08-01T00:26:03;148.03;;;136.73;;
14187;SDS011;7175;51.978;5.330;2023-08-01T00:45:43;136.50;;;124.80;;
14187;SDS011;7175;51.978;5.330;2023-08-01T00:48:13;135.63;;;124.27;;
14187;SDS011;7175;51.978;5.330;2023-08-01T00:50:41;131.43;;;120.37;;
14187;SDS011;7175;51.978;5.330;2023-08-01T00:53:10;130.20;;;119.30;;
14187;SDS011;7175;51.978;5.330;2023-08-01T00:55:39;130.60;;;119.77;;
14187;SDS011;7175;51.978;5.330;2023-08-01T00:58:08;131.53;;;120.63;;
14187;SDS011;7175;51.978;5.330;2023-08-01T01:00:36;130.97;;;120.17;;
14187;SDS011;7175;51.978;5.330;2023-08-01T01:03:07;131.20;;;120.30;;
14187;SDS011;7175;51.978;5.330;2023-08-01T01:05:36;134.87;;;123.70;;
14187;SDS011;7175;51.978;5.330;2023-08-01T01:08:06;134.90;;;123.60;;
14187;SDS011;7175;51.978;5.330;2023-08-01T01:10:34;136.57;;;125.10;;
14187;SDS011;7175;51.978;5.330;2023-08-01T01:13:03;137.77;;;126.30;;
14187;SDS011;7175;51.978;5.330;2023-08-01T01:15:31;140.20;;;128.50;;
14187;SDS011;7175;51.978;5.330;2023-08-01T01:17:59;144.77;;;132.60;;
14187;SDS011;7175;51.978;5.330;2023-08-01T01:20:32;141.50;;;129.33;;
14187;SDS011;7175;51.978;5.330;2023-08-01T01:23:02;139.57;;;127.47;;
14187;SDS011;7175;51.978;5.330;2023-08-01T01:25:31;142.10;;;130.10;;
14187;SDS011;7175;51.978;5.330;2023-08-01T01:28:00;143.00;;;130.80;;
14187;SDS011;7175;51.978;5.330;2023-08-01T01:30:33;145.33;;;133.10;;
14187;SDS011;7175;51.978;5.330;2023-08-01T01:33:03;145.83;;;133.53;;
14187;SDS011;7175;51.978;5.330;2023-08-01T01:35:37;148.37;;;135.77;;
14187;SDS011;7175;51.978;5.330;2023-08-01T01:38:05;147.87;;;135.27;;
14187;SDS011;7175;51.978;5.330;2023-08-01T01:40:33;145.23;;;132.23;;
14187;SDS011;7175;51.978;5.330;2023-08-01T01:43:01;147.30;;;134.30;;
14187;SDS011;7175;51.978;5.330;2023-08-01T01:45:30;147.37;;;134.37;;
14187;SDS011;7175;51.978;5.330;2023-08-01T01:47:58;147.47;;;134.37;;
14187;SDS011;7175;51.978;5.330;2023-08-01T01:50:26;145.70;;;132.60;;
14187;SDS011;7175;51.978;5.330;2023-08-01T01:52:56;147.20;;;134.17;;
14187;SDS011;7175;51.978;5.330;2023-08-01T01:55:24;146.53;;;133.37;;
14187;SDS011;7175;51.978;5.330;2023-08-01T01:57:52;146.27;;;133.30;;
14187;SDS011;7175;51.978;5.330;2023-08-01T02:00:20;147.47;;;134.37;;
14187;SDS011;7175;51.978;5.330;2023-08-01T02:02:48;148.33;;;134.80;;
14187;SDS011;7175;51.978;5.330;2023-08-01T02:05:17;147.93;;;134.53;;
14187;SDS011;7175;51.978;5.330;2023-08-01T02:07:45;147.33;;;134.00;;
14187;SDS011;7175;51.978;5.330;2023-08-01T02:10:14;151.10;;;137.70;;
14187;SDS011;7175;51.978;5.330;2023-08-01T02:12:42;150.83;;;137.43;;
14187;SDS011;7175;51.978;5.330;2023-08-01T02:15:11;149.47;;;135.97;;
14187;SDS011;7175;51.978;5.330;2023-08-01T02:17:39;146.50;;;133.17;;
14187;SDS011;7175;51.978;5.330;2023-08-01T02:20:07;145.93;;;132.73;;
14187;SDS011;7175;51.978;5.330;2023-08-01T02:22:36;146.90;;;133.50;;
14187;SDS011;7175;51.978;5.330;2023-08-01T02:25:05;146.00;;;132.73;;
14187;SDS011;7175;51.978;5.330;2023-08-01T02:27:34;144.63;;;131.53;;
14187;SDS011;7175;51.978;5.330;2023-08-01T02:30:02;142.67;;;129.70;;
14187;SDS011;7175;51.978;5.330;2023-08-01T02:32:32;141.80;;;128.87;;
14187;SDS011;7175;51.978;5.330;2023-08-01T02:35:00;141.67;;;128.67;;
14187;SDS011;7175;51.978;5.330;2023-08-01T02:37:28;140.77;;;128.17;;
14187;SDS011;7175;51.978;5.330;2023-08-01T02:39:56;138.80;;;126.00;;
14187;SDS011;7175;51.978;5.330;2023-08-01T02:42:25;143.00;;;130.27;;
14187;SDS011;7175;51.978;5.330;2023-08-01T02:44:55;140.77;;;127.97;;
14187;SDS011;7175;51.978;5.330;2023-08-01T02:47:23;141.70;;;128.80;;
14187;SDS011;7175;51.978;5.330;2023-08-01T02:49:52;141.23;;;128.43;;
14187;SDS011;7175;51.978;5.330;2023-08-01T02:52:20;139.60;;;126.80;;
14187;SDS011;7175;51.978;5.330;2023-08-01T02:54:48;141.50;;;128.80;;
14187;SDS011;7175;51.978;5.330;2023-08-01T02:57:16;142.10;;;129.23;;
14187;SDS011;7175;51.978;5.330;2023-08-01T02:59:45;140.90;;;128.17;;
14187;SDS011;7175;51.978;5.330;2023-08-01T03:02:15;138.97;;;126.33;;
14187;SDS011;7175;51.978;5.330;2023-08-01T03:04:43;140.23;;;127.67;;
14187;SDS011;7175;51.978;5.330;2023-08-01T03:07:12;138.13;;;125.63;;
14187;SDS011;7175;51.978;5.330;2023-08-01T03:09:41;149.15;;;135.32;;
14187;SDS011;7175;51.978;5.330;2023-08-01T03:12:12;145.70;;;132.33;;
14187;SDS011;7175;51.978;5.330;2023-08-01T03:14:41;147.70;;;134.60;;
14187;SDS011;7175;51.978;5.330;2023-08-01T03:17:10;142.93;;;130.23;;
14187;SDS011;7175;51.978;5.330;2023-08-01T03:19:40;141.63;;;129.17;;
14187;SDS011;7175;51.978;5.330;2023-08-01T03:22:08;139.30;;;126.97;;
14187;SDS011;7175;51.978;5.330;2023-08-01T03:24:37;138.03;;;125.83;;
14187;SDS011;7175;51.978;5.330;2023-08-01T03:27:05;135.70;;;123.60;;
14187;SDS011;7175;51.978;5.330;2023-08-01T03:29:35;136.87;;;124.73;;
14187;SDS011;7175;51.978;5.330;2023-08-01T03:32:03;135.77;;;123.87;;
14187;SDS011;7175;51.978;5.330;2023-08-01T03:34:32;134.80;;;122.90;;
14187;SDS011;7175;51.978;5.330;2023-08-01T03:37:02;137.37;;;125.57;;
14187;SDS011;7175;51.978;5.330;2023-08-01T03:39:30;136.40;;;124.80;;
14187;SDS011;7175;51.978;5.330;2023-08-01T03:41:59;135.10;;;123.30;;
14187;SDS011;7175;51.978;5.330;2023-08-01T03:44:27;136.07;;;124.30;;
14187;SDS011;7175;51.978;5.330;2023-08-01T03:46:55;135.33;;;123.37;;
14187;SDS011;7175;51.978;5.330;2023-08-01T03:49:23;137.10;;;124.73;;
14187;SDS011;7175;51.978;5.330;2023-08-01T03:51:51;136.10;;;123.90;;
14187;SDS011;7175;51.978;5.330;2023-08-01T03:54:21;136.63;;;124.27;;
14187;SDS011;7175;51.978;5.330;2023-08-01T03:56:51;136.80;;;124.20;;
14187;SDS011;7175;51.978;5.330;2023-08-01T03:59:19;136.30;;;123.97;;
14187;SDS011;7175;51.978;5.330;2023-08-01T04:01:47;135.30;;;123.43;;
14187;SDS011;7175;51.978;5.330;2023-08-01T04:04:16;137.03;;;124.30;;
14187;SDS011;7175;51.978;5.330;2023-08-01T04:06:46;131.93;;;119.63;;
14187;SDS011;7175;51.978;5.330;2023-08-01T04:09:14;132.57;;;120.47;;
14187;SDS011;7175;51.978;5.330;2023-08-01T04:11:44;134.47;;;122.57;;
14187;SDS011;7175;51.978;5.330;2023-08-01T04:14:12;135.60;;;123.50;;
14187;SDS011;7175;51.978;5.330;2023-08-01T04:16:40;143.43;;;131.23;;
14187;SDS011;7175;51.978;5.330;2023-08-01T04:19:08;145.57;;;133.80;;
14187;SDS011;7175;51.978;5.330;2023-08-01T04:21:37;148.43;;;136.57;;
14187;SDS011;7175;51.978;5.330;2023-08-01T04:24:05;146.00;;;134.07;;
14187;SDS011;7175;51.978;5.330;2023-08-01T04:26:33;145.13;;;133.63;;
14187;SDS011;7175;51.978;5.330;2023-08-01T04:29:05;142.33;;;130.77;;
14187;SDS011;7175;51.978;5.330;2023-08-01T04:31:33;140.57;;;129.20;;
14187;SDS011;7175;51.978;5.330;2023-08-01T04:34:01;141.93;;;130.60;;
14187;SDS011;7175;51.978;5.330;2023-08-01T04:36:29;142.67;;;131.27;;
14187;SDS011;7175;51.978;5.330;2023-08-01T04:38:58;141.70;;;130.40;;
14187;SDS011;7175;51.978;5.330;2023-08-01T04:41:26;144.43;;;133.07;;
14187;SDS011;7175;51.978;5.330;2023-08-01T04:43:54;143.10;;;131.90;;
14187;SDS011;7175;51.978;5.330;2023-08-01T04:46:24;145.40;;;134.27;;
14187;SDS011;7175;51.978;5.330;2023-08-01T04:48:53;146.60;;;135.30;;
14187;SDS011;7175;51.978;5.330;2023-08-01T04:51:21;149.87;;;138.37;;
14187;SDS011;7175;51.978;5.330;2023-08-01T04:53:49;156.53;;;144.90;;
14187;SDS011;7175;51.978;5.330;2023-08-01T04:56:18;166.10;;;154.20;;
14187;SDS011;7175;51.978;5.330;2023-08-01T04:58:46;153.53;;;142.00;;
14187;SDS011;7175;51.978;5.330;2023-08-01T05:01:14;149.67;;;138.13;;
14187;SDS011;7175;51.978;5.330;2023-08-01T05:03:44;149.63;;;137.80;;
14187;SDS011;7175;51.978;5.330;2023-08-01T05:06:12;161.20;;;149.00;;
14187;SDS011;7175;51.978;5.330;2023-08-01T05:08:40;150.17;;;138.40;;
14187;SDS011;7175;51.978;5.330;2023-08-01T05:11:09;148.10;;;136.77;;
14187;SDS011;7175;51.978;5.330;2023-08-01T05:13:37;148.07;;;136.80;;
14187;SDS011;7175;51.978;5.330;2023-08-01T05:16:05;150.80;;;139.30;;
14187;SDS011;7175;51.978;5.330;2023-08-01T05:18:34;152.20;;;140.67;;
14187;SDS011;7175;51.978;5.330;2023-08-01T05:21:03;157.60;;;145.90;;
14187;SDS011;7175;51.978;5.330;2023-08-01T05:23:31;158.20;;;146.30;;
14187;SDS011;7175;51.978;5.330;2023-08-01T05:26:00;152.50;;;140.80;;
14187;SDS011;7175;51.978;5.330;2023-08-01T05:28:28;159.20;;;147.20;;
14187;SDS011;7175;51.978;5.330;2023-08-01T05:30:56;157.07;;;145.47;;
14187;SDS011;7175;51.978;5.330;2023-08-01T05:33:25;153.87;;;142.57;;
14187;SDS011;7175;51.978;5.330;2023-08-01T05:35:53;151.43;;;140.03;;
14187;SDS011;7175;51.978;5.330;2023-08-01T05:38:22;154.87;;;143.27;;
14187;SDS011;7175;51.978;5.330;2023-08-01T05:40:50;149.50;;;138.27;;
14187;SDS011;7175;51.978;5.330;2023-08-01T05:43:19;147.67;;;136.77;;
14187;SDS011;7175;51.978;5.330;2023-08-01T05:45:47;151.03;;;139.93;;
14187;SDS011;7175;51.978;5.330;2023-08-01T05:48:19;151.27;;;140.27;;
14187;SDS011;7175;51.978;5.330;2023-08-01T05:50:47;150.67;;;139.67;;
14187;SDS011;7175;51.978;5.330;2023-08-01T05:53:15;151.33;;;140.30;;
14187;SDS011;7175;51.978;5.330;2023-08-01T05:55:45;149.83;;;138.90;;
14187;SDS011;7175;51.978;5.330;2023-08-01T05:58:13;144.23;;;133.53;;
14187;SDS011;7175;51.978;5.330;2023-08-01T06:00:42;146.93;;;136.27;;
14187;SDS011;7175;51.978;5.330;2023-08-01T06:03:10;143.43;;;132.97;;
14187;SDS011;7175;51.978;5.330;2023-08-01T06:05:38;136.13;;;126.20;;
14187;SDS011;7175;51.978;5.330;2023-08-01T06:08:07;134.43;;;124.57;;
14187;SDS011;7175;51.978;5.330;2023-08-01T06:10:35;132.50;;;122.80;;
14187;SDS011;7175;51.978;5.330;2023-08-01T06:13:05;136.23;;;126.37;;
14187;SDS011;7175;51.978;5.330;2023-08-01T06:15:33;137.90;;;127.90;;
14187;SDS011;7175;51.978;5.330;2023-08-01T06:18:02;135.23;;;125.37;;
14187;SDS011;7175;51.978;5.330;2023-08-01T06:20:30;130.20;;;120.70;;
14187;SDS011;7175;51.978;5.330;2023-08-01T06:22:58;128.77;;;119.57;;
14187;SDS011;7175;51.978;5.330;2023-08-01T06:25:27;125.97;;;116.87;;
14187;SDS011;7175;51.978;5.330;2023-08-01T06:27:55;128.63;;;119.27;;
14187;SDS011;7175;51.978;5.330;2023-08-01T06:30:25;128.50;;;119.30;;
14187;SDS011;7175;51.978;5.330;2023-08-01T06:32:53;124.60;;;115.60;;
14187;SDS011;7175;51.978;5.330;2023-08-01T06:35:22;120.17;;;111.37;;
14187;SDS011;7175;51.978;5.330;2023-08-01T06:37:50;116.50;;;107.90;;
14187;SDS011;7175;51.978;5.330;2023-08-01T06:40:18;122.00;;;113.10;;
14187;SDS011;7175;51.978;5.330;2023-08-01T06:42:46;117.63;;;108.80;;
14187;SDS011;7175;51.978;5.330;2023-08-01T06:45:15;113.97;;;105.57;;
14187;SDS011;7175;51.978;5.330;2023-08-01T06:47:44;114.73;;;106.30;;
14187;SDS011;7175;51.978;5.330;2023-08-01T06:50:12;113.40;;;105.27;;
14187;SDS011;7175;51.978;5.330;2023-08-01T06:52:41;113.07;;;104.97;;
14187;SDS011;7175;51.978;5.330;2023-08-01T06:55:09;105.97;;;98.47;;
14187;SDS011;7175;51.978;5.330;2023-08-01T06:57:37;104.73;;;97.60;;
14187;SDS011;7175;51.978;5.330;2023-08-01T07:00:06;103.03;;;96.20;;
14187;SDS011;7175;51.978;5.330;2023-08-01T07:02:35;102.07;;;95.47;;
14187;SDS011;7175;51.978;5.330;2023-08-01T07:05:05;99.57;;;93.17;;
14187;SDS011;7175;51.978;5.330;2023-08-01T07:07:33;102.10;;;95.50;;
14187;SDS011;7175;51.978;5.330;2023-08-01T07:10:02;100.37;;;93.57;;
14187;SDS011;7175;51.978;5.330;2023-08-01T07:12:30;92.07;;;86.27;;
14187;SDS011;7175;51.978;5.330;2023-08-01T07:14:58;90.83;;;85.13;;
14187;SDS011;7175;51.978;5.330;2023-08-01T07:17:28;86.10;;;80.70;;
14187;SDS011;7175;51.978;5.330;2023-08-01T07:19:56;83.53;;;78.23;;
14187;SDS011;7175;51.978;5.330;2023-08-01T07:22:26;77.90;;;72.90;;
14187;SDS011;7175;51.978;5.330;2023-08-01T07:24:54;63.90;;;59.60;;
14187;SDS011;7175;51.978;5.330;2023-08-01T07:27:22;68.03;;;63.60;;
14187;SDS011;7175;51.978;5.330;2023-08-01T07:29:50;56.83;;;53.03;;
14187;SDS011;7175;51.978;5.330;2023-08-01T07:32:19;54.47;;;50.77;;
14187;SDS011;7175;51.978;5.330;2023-08-01T07:34:48;45.20;;;42.00;;
14187;SDS011;7175;51.978;5.330;2023-08-01T07:37:16;43.37;;;40.27;;
14187;SDS011;7175;51.978;5.330;2023-08-01T07:39:46;39.03;;;36.17;;
14187;SDS011;7175;51.978;5.330;2023-08-01T07:42:14;41.07;;;38.17;;
14187;SDS011;7175;51.978;5.330;2023-08-01T07:44:42;34.47;;;31.93;;
14187;SDS011;7175;51.978;5.330;2023-08-01T07:47:10;36.83;;;34.23;;
14187;SDS011;7175;51.978;5.330;2023-08-01T07:49:38;36.83;;;34.23;;
14187;SDS011;7175;51.978;5.330;2023-08-01T07:52:07;34.13;;;31.63;;
14187;SDS011;7175;51.978;5.330;2023-08-01T07:54:37;38.00;;;35.30;;
14187;SDS011;7175;51.978;5.330;2023-08-01T07:57:07;35.40;;;32.80;;
14187;SDS011;7175;51.978;5.330;2023-08-01T07:59:35;32.03;;;29.63;;
14187;SDS011;7175;51.978;5.330;2023-08-01T08:02:04;33.17;;;30.70;;
14187;SDS011;7175;51.978;5.330;2023-08-01T08:04:33;33.30;;;30.87;;
14187;SDS011;7175;51.978;5.330;2023-08-01T08:07:01;30.30;;;28.00;;
14187;SDS011;7175;51.978;5.330;2023-08-01T08:09:30;29.60;;;27.30;;
14187;SDS011;7175;51.978;5.330;2023-08-01T08:11:58;29.40;;;27.07;;
14187;SDS011;7175;51.978;5.330;2023-08-01T08:14:29;30.20;;;27.90;;
14187;SDS011;7175;51.978;5.330;2023-08-01T08:16:58;29.50;;;27.13;;
14187;SDS011;7175;51.978;5.330;2023-08-01T08:19:26;28.27;;;26.07;;
14187;SDS011;7175;51.978;5.330;2023-08-01T08:21:55;26.60;;;24.50;;
14187;SDS011;7175;51.978;5.330;2023-08-01T08:24:23;26.80;;;24.60;;
14187;SDS011;7175;51.978;5.330;2023-08-01T08:26:51;25.23;;;23.23;;
14187;SDS011;7175;51.978;5.330;2023-08-01T08:29:20;25.37;;;23.37;;
14187;SDS011;7175;51.978;5.330;2023-08-01T08:31:52;23.63;;;21.63;;
14187;SDS011;7175;51.978;5.330;2023-08-01T08:34:21;25.30;;;23.30;;
14187;SDS011;7175;51.978;5.330;2023-08-01T08:36:49;26.07;;;23.97;;
14187;SDS011;7175;51.978;5.330;2023-08-01T08:39:17;24.63;;;22.63;;
14187;SDS011;7175;51.978;5.330;2023-08-01T08:41:46;23.30;;;21.40;;
14187;SDS011;7175;51.978;5.330;2023-08-01T08:44:16;22.53;;;20.73;;
14187;SDS011;7175;51.978;5.330;2023-08-01T08:46:47;22.03;;;20.23;;
14187;SDS011;7175;51.978;5.330;2023-08-01T08:49:19;22.17;;;20.37;;
14187;SDS011;7175;51.978;5.330;2023-08-01T08:51:48;21.73;;;19.93;;
14187;SDS011;7175;51.978;5.330;2023-08-01T08:54:16;21.60;;;19.80;;
14187;SDS011;7175;51.978;5.330;2023-08-01T08:56:45;21.03;;;19.33;;
14187;SDS011;7175;51.978;5.330;2023-08-01T08:59:14;21.37;;;19.67;;
14187;SDS011;7175;51.978;5.330;2023-08-01T09:01:42;21.00;;;19.30;;
14187;SDS011;7175;51.978;5.330;2023-08-01T09:04:12;21.27;;;19.57;;
14187;SDS011;7175;51.978;5.330;2023-08-01T09:06:44;21.03;;;19.33;;
14187;SDS011;7175;51.978;5.330;2023-08-01T09:09:17;20.97;;;19.27;;
14187;SDS011;7175;51.978;5.330;2023-08-01T09:11:46;21.00;;;19.30;;
14187;SDS011;7175;51.978;5.330;2023-08-01T09:14:15;20.97;;;19.27;;
14187;SDS011;7175;51.978;5.330;2023-08-01T09:16:44;21.10;;;19.40;;
14187;SDS011;7175;51.978;5.330;2023-08-01T09:19:16;21.70;;;19.90;;
14187;SDS011;7175;51.978;5.330;2023-08-01T09:21:47;21.27;;;19.57;;
14187;SDS011;7175;51.978;5.330;2023-08-01T09:24:15;21.70;;;20.00;;
14187;SDS011;7175;51.978;5.330;2023-08-01T09:26:45;21.40;;;19.70;;
14187;SDS011;7175;51.978;5.330;2023-08-01T09:29:15;21.23;;;19.53;;
14187;SDS011;7175;51.978;5.330;2023-08-01T09:31:45;21.33;;;19.63;;
14187;SDS011;7175;51.978;5.330;2023-08-01T09:34:18;21.80;;;20.00;;
14187;SDS011;7175;51.978;5.330;2023-08-01T09:36:48;21.37;;;19.67;;
14187;SDS011;7175;51.978;5.330;2023-08-01T09:39:18;20.73;;;19.03;;
14187;SDS011;7175;51.978;5.330;2023-08-01T09:41:52;21.07;;;19.37;;
14187;SDS011;7175;51.978;5.330;2023-08-01T09:44:23;21.47;;;19.67;;
14187;SDS011;7175;51.978;5.330;2023-08-01T09:46:55;21.33;;;19.63;;
14187;SDS011;7175;51.978;5.330;2023-08-01T09:49:24;21.13;;;19.43;;
14187;SDS011;7175;51.978;5.330;2023-08-01T09:51:55;21.10;;;19.40;;
14187;SDS011;7175;51.978;5.330;2023-08-01T09:54:24;20.77;;;19.07;;
14187;SDS011;7175;51.978;5.330;2023-08-01T09:56:53;20.90;;;19.20;;
14187;SDS011;7175;51.978;5.330;2023-08-01T09:59:23;20.47;;;18.87;;
14187;SDS011;7175;51.978;5.330;2023-08-01T10:01:53;19.90;;;18.30;;
14187;SDS011;7175;51.978;5.330;2023-08-01T10:04:23;20.00;;;18.40;;
14187;SDS011;7175;51.978;5.330;2023-08-01T10:06:57;20.17;;;18.57;;
14187;SDS011;7175;51.978;5.330;2023-08-01T10:09:26;19.87;;;18.20;;
14187;SDS011;7175;51.978;5.330;2023-08-01T10:11:57;19.47;;;17.87;;
14187;SDS011;7175;51.978;5.330;2023-08-01T10:14:26;20.00;;;18.30;;
14187;SDS011;7175;51.978;5.330;2023-08-01T10:16:55;20.17;;;18.57;;
14187;SDS011;7175;51.978;5.330;2023-08-01T10:19:24;19.60;;;18.10;;
14187;SDS011;7175;51.978;5.330;2023-08-01T10:21:53;19.67;;;18.13;;
14187;SDS011;7175;51.978;5.330;2023-08-01T10:24:25;20.13;;;18.53;;
14187;SDS011;7175;51.978;5.330;2023-08-01T10:26:55;19.57;;;17.97;;
14187;SDS011;7175;51.978;5.330;2023-08-01T10:29:33;20.43;;;18.73;;
14187;SDS011;7175;51.978;5.330;2023-08-01T10:32:05;19.80;;;18.20;;
14187;SDS011;7175;51.978;5.330;2023-08-01T10:34:37;19.77;;;18.17;;
14187;SDS011;7175;51.978;5.330;2023-08-01T10:37:07;19.80;;;18.10;;
14187;SDS011;7175;51.978;5.330;2023-08-01T10:39:36;19.37;;;17.87;;
14187;SDS011;7175;51.978;5.330;2023-08-01T10:42:07;18.97;;;17.47;;
14187;SDS011;7175;51.978;5.330;2023-08-01T10:44:44;19.40;;;17.87;;
14187;SDS011;7175;51.978;5.330;2023-08-01T10:47:12;19.50;;;17.90;;
14187;SDS011;7175;51.978;5.330;2023-08-01T10:49:41;19.40;;;17.80;;
14187;SDS011;7175;51.978;5.330;2023-08-01T10:52:19;19.33;;;17.73;;
14187;SDS011;7175;51.978;5.330;2023-08-01T10:54:55;19.60;;;18.00;;
14187;SDS011;7175;51.978;5.330;2023-08-01T10:57:26;19.13;;;17.63;;
14187;SDS011;7175;51.978;5.330;2023-08-01T10:59:55;19.10;;;17.60;;
14187;SDS011;7175;51.978;5.330;2023-08-01T11:02:26;18.83;;;17.33;;
14187;SDS011;7175;51.978;5.330;2023-08-01T11:04:56;19.20;;;17.60;;
14187;SDS011;7175;51.978;5.330;2023-08-01T11:07:29;18.97;;;17.37;;
14187;SDS011;7175;51.978;5.330;2023-08-01T11:10:04;19.17;;;17.67;;
14187;SDS011;7175;51.978;5.330;2023-08-01T11:12:35;20.10;;;18.40;;
14187;SDS011;7175;51.978;5.330;2023-08-01T11:15:05;19.50;;;17.90;;
14187;SDS011;7175;51.978;5.330;2023-08-01T11:17:35;20.37;;;18.67;;
14187;SDS011;7175;51.978;5.330;2023-08-01T11:20:05;20.40;;;18.70;;
14187;SDS011;7175;51.978;5.330;2023-08-01T11:22:36;20.67;;;18.97;;
14187;SDS011;7175;51.978;5.330;2023-08-01T11:25:05;20.20;;;18.50;;
14187;SDS011;7175;51.978;5.330;2023-08-01T11:27:33;20.43;;;18.73;;
14187;SDS011;7175;51.978;5.330;2023-08-01T11:30:02;20.27;;;18.57;;
14187;SDS011;7175;51.978;5.330;2023-08-01T11:32:35;19.30;;;17.70;;
14187;SDS011;7175;51.978;5.330;2023-08-01T11:35:05;19.73;;;18.03;;
14187;SDS011;7175;51.978;5.330;2023-08-01T11:37:34;20.20;;;18.50;;
14187;SDS011;7175;51.978;5.330;2023-08-01T11:40:05;19.80;;;18.20;;
14187;SDS011;7175;51.978;5.330;2023-08-01T11:42:35;19.83;;;18.23;;
14187;SDS011;7175;51.978;5.330;2023-08-01T11:45:08;19.70;;;18.10;;
14187;SDS011;7175;51.978;5.330;2023-08-01T11:47:38;20.30;;;18.70;;
14187;SDS011;7175;51.978;5.330;2023-08-01T11:50:12;20.33;;;18.73;;
14187;SDS011;7175;51.978;5.330;2023-08-01T11:52:46;20.37;;;18.77;;
14187;SDS011;7175;51.978;5.330;2023-08-01T11:55:20;20.07;;;18.47;;
14187;SDS011;7175;51.978;5.330;2023-08-01T11:57:55;19.83;;;18.33;;
14187;SDS011;7175;51.978;5.330;2023-08-01T12:00:26;20.57;;;18.97;;
14187;SDS011;7175;51.978;5.330;2023-08-01T12:03:05;19.93;;;18.33;;
14187;SDS011;7175;51.978;5.330;2023-08-01T12:05:38;20.23;;;18.63;;
14187;SDS011;7175;51.978;5.330;2023-08-01T12:08:14;20.20;;;18.60;;
14187;SDS011;7175;51.978;5.330;2023-08-01T12:10:43;19.97;;;18.37;;
14187;SDS011;7175;51.978;5.330;2023-08-01T12:13:19;19.63;;;18.03;;
14187;SDS011;7175;51.978;5.330;2023-08-01T12:15:48;19.47;;;17.90;;
14187;SDS011;7175;51.978;5.330;2023-08-01T12:18:20;19.60;;;18.10;;
14187;SDS011;7175;51.978;5.330;2023-08-01T12:21:10;20.40;;;18.80;;
14187;SDS011;7175;51.978;5.330;2023-08-01T12:23:40;19.90;;;18.33;;
14187;SDS011;7175;51.978;5.330;2023-08-01T12:26:08;20.40;;;18.80;;
14187;SDS011;7175;51.978;5.330;2023-08-01T12:28:36;20.50;;;18.80;;
14187;SDS011;7175;51.978;5.330;2023-08-01T12:31:05;20.00;;;18.40;;
14187;SDS011;7175;51.978;5.330;2023-08-01T12:33:33;20.50;;;18.80;;
14187;SDS011;7175;51.978;5.330;2023-08-01T12:36:01;20.80;;;19.10;;
14187;SDS011;7175;51.978;5.330;2023-08-01T12:38:30;20.37;;;18.67;;
14187;SDS011;7175;51.978;5.330;2023-08-01T12:41:00;20.60;;;18.90;;
14187;SDS011;7175;51.978;5.330;2023-08-01T12:43:29;20.17;;;18.47;;
14187;SDS011;7175;51.978;5.330;2023-08-01T12:45:57;20.30;;;18.70;;
14187;SDS011;7175;51.978;5.330;2023-08-01T12:48:25;20.07;;;18.47;;
14187;SDS011;7175;51.978;5.330;2023-08-01T12:50:54;20.23;;;18.63;;
14187;SDS011;7175;51.978;5.330;2023-08-01T12:53:23;20.00;;;18.40;;
14187;SDS011;7175;51.978;5.330;2023-08-01T12:55:52;20.47;;;18.87;;
14187;SDS011;7175;51.978;5.330;2023-08-01T12:58:24;20.40;;;18.70;;
14187;SDS011;7175;51.978;5.330;2023-08-01T13:00:56;20.90;;;19.20;;
14187;SDS011;7175;51.978;5.330;2023-08-01T13:03:24;21.10;;;19.40;;
14187;SDS011;7175;51.978;5.330;2023-08-01T13:05:55;21.87;;;20.07;;
14187;SDS011;7175;51.978;5.330;2023-08-01T13:08:24;21.23;;;19.53;;
14187;SDS011;7175;51.978;5.330;2023-08-01T13:10:52;21.17;;;19.37;;
14187;SDS011;7175;51.978;5.330;2023-08-01T13:13:20;21.73;;;19.93;;
14187;SDS011;7175;51.978;5.330;2023-08-01T13:15:50;19.90;;;18.20;;
14187;SDS011;7175;51.978;5.330;2023-08-01T13:18:18;22.00;;;20.20;;
14187;SDS011;7175;51.978;5.330;2023-08-01T13:20:46;20.37;;;18.70;;
14187;SDS011;7175;51.978;5.330;2023-08-01T13:23:14;22.33;;;20.53;;
14187;SDS011;7175;51.978;5.330;2023-08-01T13:25:42;20.07;;;18.47;;
14187;SDS011;7175;51.978;5.330;2023-08-01T13:28:12;22.27;;;20.47;;
14187;SDS011;7175;51.978;5.330;2023-08-01T13:30:40;22.67;;;20.87;;
14187;SDS011;7175;51.978;5.330;2023-08-01T13:33:10;21.10;;;19.40;;
14187;SDS011;7175;51.978;5.330;2023-08-01T13:35:38;20.90;;;19.20;;
14187;SDS011;7175;51.978;5.330;2023-08-01T13:38:06;20.90;;;19.20;;
14187;SDS011;7175;51.978;5.330;2023-08-01T13:40:34;20.83;;;19.13;;
14187;SDS011;7175;51.978;5.330;2023-08-01T13:43:02;20.63;;;18.93;;
14187;SDS011;7175;51.978;5.330;2023-08-01T13:45:30;20.60;;;18.90;;
14187;SDS011;7175;51.978;5.330;2023-08-01T13:47:59;20.57;;;18.87;;
14187;SDS011;7175;51.978;5.330;2023-08-01T13:50:29;19.80;;;18.20;;
14187;SDS011;7175;51.978;5.330;2023-08-01T13:52:57;19.73;;;18.03;;
14187;SDS011;7175;51.978;5.330;2023-08-01T13:55:25;19.60;;;18.00;;
14187;SDS011;7175;51.978;5.330;2023-08-01T13:57:53;20.13;;;18.53;;
14187;SDS011;7175;51.978;5.330;2023-08-01T14:00:21;19.73;;;18.13;;
14187;SDS011;7175;51.978;5.330;2023-08-01T14:02:49;19.67;;;18.00;;
14187;SDS011;7175;51.978;5.330;2023-08-01T14:05:18;19.73;;;18.03;;
14187;SDS011;7175;51.978;5.330;2023-08-01T14:07:48;20.23;;;18.53;;
14187;SDS011;7175;51.978;5.330;2023-08-01T14:10:16;20.33;;;18.63;;
14187;SDS011;7175;51.978;5.330;2023-08-01T14:12:44;20.80;;;19.10;;
14187;SDS011;7175;51.978;5.330;2023-08-01T14:15:12;20.57;;;18.87;;
14187;SDS011;7175;51.978;5.330;2023-08-01T14:17:43;20.37;;;18.67;;
14187;SDS011;7175;51.978;5.330;2023-08-01T14:20:15;20.60;;;18.90;;
14187;SDS011;7175;51.978;5.330;2023-08-01T14:22:43;20.30;;;18.60;;
14187;SDS011;7175;51.978;5.330;2023-08-01T14:25:14;20.23;;;18.53;;
14187;SDS011;7175;51.978;5.330;2023-08-01T14:27:42;20.40;;;18.70;;
14187;SDS011;7175;51.978;5.330;2023-08-01T14:30:18;20.33;;;18.73;;
14187;SDS011;7175;51.978;5.330;2023-08-01T14:32:46;20.43;;;18.83;;
14187;SDS011;7175;51.978;5.330;2023-08-01T14:35:14;20.23;;;18.63;;
14187;SDS011;7175;51.978;5.330;2023-08-01T14:37:42;20.27;;;18.67;;
14187;SDS011;7175;51.978;5.330;2023-08-01T14:40:16;20.00;;;18.40;;
14187;SDS011;7175;51.978;5.330;2023-08-01T14:42:44;19.93;;;18.33;;
14187;SDS011;7175;51.978;5.330;2023-08-01T14:45:12;20.20;;;18.60;;
14187;SDS011;7175;51.978;5.330;2023-08-01T14:47:40;20.30;;;18.70;;
14187;SDS011;7175;51.978;5.330;2023-08-01T14:50:09;20.37;;;18.77;;
14187;SDS011;7175;51.978;5.330;2023-08-01T14:52:38;20.50;;;18.80;;